Time;durP1;ratioP1;P1;durP2;ratioP2;P2;SDS_P1;SDS_P2;PMS_P1;PMS_P2;Temp;Humidity;BMP_temperature;BMP_pressure;BME280_temperature;BME280_humidity;BME280_pressure;Samples;Min_cycle;Max_cycle;Signal;HPM_P1;HPM_P2
2023/07/05 00:01:00;;;;;;;9.03;4.50;;;;;;;;;;5071165;28;20203;-49
2023/07/05 00:03:26;;;;;;;8.97;4.57;;;;;;;;;;5071043;28;20201;-50
2023/07/05 00:05:52;;;;;;;14.37;5.80;;;;;;;;;;5070796;28;20306;-49
2023/07/05 00:08:18;;;;;;;10.90;4.80;;;;;;;;;;5070937;28;20314;-49
2023/07/05 00:10:46;;;;;;;8.77;4.53;;;;;;;;;;5070842;28;20195;-49
2023/07/05 00:13:12;;;;;;;7.90;4.70;;;;;;;;;;5070919;28;20428;-49
2023/07/05 00:15:38;;;;;;;10.13;4.87;;;;;;;;;;5070848;28;20834;-49
2023/07/05 00:18:04;;;;;;;9.97;4.57;;;;;;;;;;5070883;28;20658;-48
2023/07/05 00:20:30;;;;;;;7.17;4.80;;;;;;;;;;5070813;28;20206;-49
2023/07/05 00:22:56;;;;;;;8.67;5.00;;;;;;;;;;5070946;28;20199;-48
2023/07/05 00:25:22;;;;;;;10.80;4.60;;;;;;;;;;5070821;28;20223;-47
2023/07/05 00:27:49;;;;;;;7.90;4.87;;;;;;;;;;5070615;28;20200;-50
2023/07/05 00:30:16;;;;;;;8.17;4.43;;;;;;;;;;5070698;28;20239;-48
2023/07/05 00:32:42;;;;;;;5.87;4.43;;;;;;;;;;5070657;28;20253;-48
2023/07/05 00:35:08;;;;;;;9.47;4.57;;;;;;;;;;5070792;28;20645;-48
2023/07/05 00:37:34;;;;;;;7.97;4.60;;;;;;;;;;5070595;28;20666;-48
2023/07/05 00:40:00;;;;;;;8.87;4.97;;;;;;;;;;5070903;28;20195;-48
2023/07/05 00:42:26;;;;;;;8.07;4.90;;;;;;;;;;5072463;28;20239;-48
2023/07/05 00:45:11;;;;;;;11.07;4.60;;;;;;;;;;5074225;28;20590;-48
2023/07/05 00:47:40;;;;;;;7.47;4.50;;;;;;;;;;5074281;28;20275;-48
2023/07/05 00:50:26;;;;;;;10.70;4.93;;;;;;;;;;5074349;28;20212;-48
2023/07/05 00:52:53;;;;;;;9.20;4.77;;;;;;;;;;5074277;28;20191;-48
2023/07/05 00:55:20;;;;;;;10.87;5.07;;;;;;;;;;5074286;28;20214;-49
2023/07/05 00:57:46;;;;;;;8.53;4.63;;;;;;;;;;5074108;28;20208;-49
2023/07/05 01:00:14;;;;;;;9.40;5.07;;;;;;;;;;5074292;28;20218;-47
2023/07/05 01:02:43;;;;;;;9.93;4.73;;;;;;;;;;5074034;28;20199;-48
2023/07/05 01:05:11;;;;;;;9.97;5.57;;;;;;;;;;5073919;28;20764;-49
2023/07/05 01:07:37;;;;;;;8.97;5.00;;;;;;;;;;5073914;28;20228;-49
2023/07/05 01:10:04;;;;;;;8.20;4.73;;;;;;;;;;5074225;28;20286;-49
2023/07/05 01:12:35;;;;;;;9.30;5.03;;;;;;;;;;5074109;28;20203;-49
2023/07/05 01:15:04;;;;;;;9.70;5.03;;;;;;;;;;5073846;28;20717;-49
2023/07/05 01:17:34;;;;;;;7.47;4.93;;;;;;;;;;5073896;28;20454;-49
2023/07/05 01:20:09;;;;;;;8.60;4.90;;;;;;;;;;5073852;28;20199;-49
2023/07/05 01:22:48;;;;;;;7.27;4.30;;;;;;;;;;5073774;28;20203;-49
2023/07/05 01:25:32;;;;;;;8.63;4.83;;;;;;;;;;5073694;28;20905;-49
2023/07/05 01:28:16;;;;;;;9.13;5.00;;;;;;;;;;5073601;28;20199;-49
2023/07/05 01:30:50;;;;;;;8.43;4.90;;;;;;;;;;5073444;28;20196;-48
2023/07/05 01:33:19;;;;;;;10.20;4.83;;;;;;;;;;5073774;28;20223;-48
2023/07/05 01:35:48;;;;;;;6.33;4.40;;;;;;;;;;5073428;28;20195;-49
2023/07/05 01:38:14;;;;;;;9.23;5.00;;;;;;;;;;5073640;28;20204;-49
2023/07/05 01:40:52;;;;;;;8.93;5.00;;;;;;;;;;5073405;28;20199;-48
2023/07/05 01:43:18;;;;;;;7.70;5.07;;;;;;;;;;5073173;28;20245;-48
2023/07/05 01:45:47;;;;;;;8.27;4.73;;;;;;;;;;5073257;28;20234;-48
2023/07/05 01:48:18;;;;;;;8.23;4.37;;;;;;;;;;5073397;28;20210;-48
2023/07/05 01:53:55;;;;;;;6.53;4.67;;;;;;;;;;5072758;28;20226;-48
2023/07/05 01:56:24;;;;;;;7.33;4.47;;;;;;;;;;5072948;28;20283;-48
2023/07/05 01:58:52;;;;;;;12.57;5.10;;;;;;;;;;5073155;28;20302;-48
2023/07/05 02:01:20;;;;;;;7.27;4.60;;;;;;;;;;5072998;28;20204;-48
2023/07/05 02:03:49;;;;;;;8.87;5.20;;;;;;;;;;5072861;28;20213;-48
2023/07/05 02:06:15;;;;;;;6.97;4.57;;;;;;;;;;5072738;28;20238;-48
2023/07/05 02:08:43;;;;;;;8.23;4.40;;;;;;;;;;5072793;28;20580;-48
2023/07/05 02:11:10;;;;;;;10.30;4.90;;;;;;;;;;5072857;28;20217;-49
2023/07/05 02:13:36;;;;;;;8.73;4.93;;;;;;;;;;5072644;28;20210;-48
2023/07/05 02:16:02;;;;;;;7.83;5.03;;;;;;;;;;5072816;28;20219;-49
2023/07/05 02:18:29;;;;;;;8.90;5.17;;;;;;;;;;5072587;28;20230;-49
2023/07/05 02:20:55;;;;;;;9.87;5.27;;;;;;;;;;5072638;28;20199;-48
2023/07/05 02:23:22;;;;;;;7.10;4.50;;;;;;;;;;5072545;28;20581;-48
2023/07/05 02:25:48;;;;;;;11.43;5.73;;;;;;;;;;5072535;28;20285;-48
2023/07/05 02:28:15;;;;;;;7.83;5.03;;;;;;;;;;5072422;28;20307;-49
2023/07/05 02:30:41;;;;;;;7.87;5.00;;;;;;;;;;5072564;28;20544;-49
2023/07/05 02:33:07;;;;;;;9.70;4.87;;;;;;;;;;5072470;28;20199;-49
2023/07/05 02:35:34;;;;;;;6.43;4.50;;;;;;;;;;5072155;28;20199;-49
2023/07/05 02:38:00;;;;;;;6.67;4.90;;;;;;;;;;5072238;28;20187;-49
2023/07/05 02:40:26;;;;;;;6.70;5.23;;;;;;;;;;5072180;28;20241;-49
2023/07/05 02:42:52;;;;;;;7.33;4.90;;;;;;;;;;5072036;28;20765;-49
2023/07/05 02:45:20;;;;;;;7.70;5.47;;;;;;;;;;5072047;28;20239;-49
2023/07/05 02:47:46;;;;;;;6.07;5.20;;;;;;;;;;5072195;28;20200;-49
2023/07/05 02:50:14;;;;;;;9.47;5.43;;;;;;;;;;5072089;28;20199;-49
2023/07/05 02:52:40;;;;;;;8.33;5.10;;;;;;;;;;5071896;28;20666;-49
2023/07/05 02:55:07;;;;;;;9.00;5.10;;;;;;;;;;5072011;28;20199;-48
2023/07/05 02:57:32;;;;;;;7.07;4.97;;;;;;;;;;5071862;28;20183;-49
2023/07/05 02:59:58;;;;;;;7.97;5.10;;;;;;;;;;5071879;28;20602;-49
2023/07/05 03:02:26;;;;;;;8.77;6.00;;;;;;;;;;5071778;28;20230;-49
2023/07/05 03:04:53;;;;;;;10.03;5.90;;;;;;;;;;5070953;28;20220;-49
2023/07/05 03:07:19;;;;;;;7.53;5.70;;;;;;;;;;5071789;28;20227;-49
2023/07/05 03:09:48;;;;;;;9.60;5.77;;;;;;;;;;5071860;28;20613;-49
2023/07/05 03:12:14;;;;;;;8.40;6.13;;;;;;;;;;5071674;28;20201;-50
2023/07/05 03:14:40;;;;;;;6.93;5.83;;;;;;;;;;5071600;28;20250;-49
2023/07/05 03:17:06;;;;;;;8.40;5.20;;;;;;;;;;5071708;28;20202;-48
2023/07/05 03:19:33;;;;;;;7.20;5.87;;;;;;;;;;5071469;28;20200;-48
2023/07/05 03:21:59;;;;;;;7.50;5.63;;;;;;;;;;5071600;28;20223;-49
2023/07/05 03:24:25;;;;;;;10.20;6.50;;;;;;;;;;5071453;28;20276;-48
2023/07/05 03:26:52;;;;;;;8.53;6.00;;;;;;;;;;5071449;28;20223;-48
2023/07/05 03:29:18;;;;;;;11.03;6.03;;;;;;;;;;5071457;28;20203;-48
2023/07/05 03:31:44;;;;;;;7.00;6.13;;;;;;;;;;5071406;28;20191;-48
2023/07/05 03:34:10;;;;;;;7.93;6.33;;;;;;;;;;5071455;28;20680;-48
2023/07/05 03:36:37;;;;;;;9.30;6.20;;;;;;;;;;5071174;28;20197;-49
2023/07/05 03:39:03;;;;;;;9.30;6.57;;;;;;;;;;5071415;28;20199;-48
2023/07/05 03:41:29;;;;;;;10.10;7.17;;;;;;;;;;5071204;28;20195;-48
2023/07/05 03:43:57;;;;;;;11.60;6.80;;;;;;;;;;5071064;28;20896;-48
2023/07/05 03:46:23;;;;;;;12.43;7.27;;;;;;;;;;5071068;28;20775;-47
2023/07/05 03:48:49;;;;;;;9.67;7.40;;;;;;;;;;5071324;28;20195;-48
2023/07/05 03:51:17;;;;;;;12.30;7.70;;;;;;;;;;5071157;28;20241;-48
2023/07/05 03:53:48;;;;;;;10.07;7.90;;;;;;;;;;5070998;28;20192;-48
2023/07/05 03:56:15;;;;;;;10.73;8.43;;;;;;;;;;5071123;28;20256;-49
2023/07/05 03:58:41;;;;;;;9.17;7.67;;;;;;;;;;5071039;28;20654;-49
2023/07/05 04:01:08;;;;;;;12.23;8.57;;;;;;;;;;5071075;28;20220;-48
2023/07/05 04:03:34;;;;;;;10.83;8.30;;;;;;;;;;5070265;28;20561;-48
2023/07/05 04:06:01;;;;;;;10.80;7.60;;;;;;;;;;5070676;28;20235;-49
2023/07/05 04:08:27;;;;;;;11.53;8.33;;;;;;;;;;5070827;28;20653;-48
2023/07/05 04:10:54;;;;;;;12.90;8.93;;;;;;;;;;5071083;28;20279;-48
2023/07/05 04:13:20;;;;;;;11.47;8.17;;;;;;;;;;5071091;28;20223;-48
2023/07/05 04:15:46;;;;;;;11.37;7.97;;;;;;;;;;5071977;28;20567;-48
2023/07/05 04:18:12;;;;;;;11.37;8.50;;;;;;;;;;5074809;28;20727;-48
2023/07/05 04:20:38;;;;;;;11.33;8.27;;;;;;;;;;5074549;28;20298;-49
2023/07/05 04:23:04;;;;;;;12.30;7.97;;;;;;;;;;5074972;28;20278;-48
2023/07/05 04:25:30;;;;;;;10.20;8.07;;;;;;;;;;5074429;28;20219;-48
2023/07/05 04:27:58;;;;;;;12.20;7.77;;;;;;;;;;5074463;28;20276;-49
2023/07/05 04:30:24;;;;;;;10.67;8.00;;;;;;;;;;5074420;28;20199;-49
2023/07/05 04:32:49;;;;;;;9.80;8.10;;;;;;;;;;5074669;28;20187;-48
2023/07/05 04:35:16;;;;;;;9.90;7.37;;;;;;;;;;5074717;28;20199;-48
2023/07/05 04:37:42;;;;;;;10.07;7.97;;;;;;;;;;5074201;28;20195;-49
2023/07/05 04:40:09;;;;;;;8.73;7.30;;;;;;;;;;5074338;28;20539;-48
2023/07/05 04:42:35;;;;;;;10.53;8.43;;;;;;;;;;5073989;28;20236;-48
2023/07/05 04:45:02;;;;;;;14.30;8.50;;;;;;;;;;5073936;28;20206;-48
2023/07/05 04:47:28;;;;;;;11.40;8.10;;;;;;;;;;5073891;28;20273;-49
2023/07/05 04:49:54;;;;;;;9.00;7.97;;;;;;;;;;5074267;28;20663;-52
2023/07/05 04:52:20;;;;;;;10.80;7.90;;;;;;;;;;5073894;28;20231;-54
2023/07/05 04:54:46;;;;;;;11.77;8.13;;;;;;;;;;5073996;28;20202;-49
2023/07/05 04:57:12;;;;;;;10.60;8.27;;;;;;;;;;5073896;28;20271;-49
2023/07/05 04:59:43;;;;;;;12.50;8.47;;;;;;;;;;5073829;28;20759;-51
2023/07/05 05:02:10;;;;;;;10.93;8.40;;;;;;;;;;5074209;28;20222;-50
2023/07/05 05:04:36;;;;;;;10.87;8.43;;;;;;;;;;5073865;28;20211;-51
2023/07/05 05:07:02;;;;;;;10.20;9.20;;;;;;;;;;5073561;28;20693;-50
2023/07/05 05:09:28;;;;;;;10.10;9.10;;;;;;;;;;5073920;28;20199;-51
2023/07/05 05:11:54;;;;;;;13.77;8.63;;;;;;;;;;5073778;28;20204;-51
2023/07/05 05:14:20;;;;;;;12.20;8.40;;;;;;;;;;5073515;28;20282;-54
2023/07/05 05:16:46;;;;;;;13.67;9.33;;;;;;;;;;5073311;28;20607;-52
2023/07/05 05:19:14;;;;;;;12.07;8.97;;;;;;;;;;5073830;28;20262;-52
2023/07/05 05:21:40;;;;;;;10.77;9.00;;;;;;;;;;5073694;28;20303;-51
2023/07/05 05:24:06;;;;;;;14.67;9.67;;;;;;;;;;5073695;28;20282;-51
2023/07/05 05:26:32;;;;;;;12.23;8.83;;;;;;;;;;5073305;28;20622;-52
2023/07/05 05:28:58;;;;;;;10.83;9.47;;;;;;;;;;5072685;28;20192;-52
2023/07/05 05:31:24;;;;;;;14.83;9.40;;;;;;;;;;5073577;28;20207;-50
2023/07/05 05:33:50;;;;;;;11.77;9.60;;;;;;;;;;5073522;28;20244;-52
2023/07/05 05:36:17;;;;;;;15.53;9.77;;;;;;;;;;5073382;28;20223;-52
2023/07/05 05:38:43;;;;;;;12.67;9.27;;;;;;;;;;5073417;28;20211;-52
2023/07/05 05:41:10;;;;;;;10.50;9.10;;;;;;;;;;5073325;28;20599;-52
2023/07/05 05:43:36;;;;;;;13.77;10.03;;;;;;;;;;5073110;28;20323;-52
2023/07/05 05:46:02;;;;;;;11.03;9.57;;;;;;;;;;5073211;28;20317;-51
2023/07/05 05:48:28;;;;;;;11.33;9.50;;;;;;;;;;5073218;28;20274;-51
2023/07/05 05:50:54;;;;;;;12.77;9.33;;;;;;;;;;5073305;28;20566;-52
2023/07/05 05:53:22;;;;;;;10.33;9.23;;;;;;;;;;5073121;28;20248;-52
2023/07/05 05:55:48;;;;;;;9.77;8.77;;;;;;;;;;5073215;28;20206;-51
2023/07/05 05:58:14;;;;;;;10.03;8.60;;;;;;;;;;5073026;28;20681;-52
2023/07/05 06:00:40;;;;;;;12.10;9.13;;;;;;;;;;5073006;28;20284;-52
2023/07/05 06:03:06;;;;;;;9.37;8.43;;;;;;;;;;5073241;28;20195;-53
2023/07/05 06:05:32;;;;;;;9.93;7.87;;;;;;;;;;5072776;28;20227;-53
2023/07/05 06:07:58;;;;;;;10.00;8.13;;;;;;;;;;5072953;28;20298;-52
2023/07/05 06:10:25;;;;;;;10.40;8.27;;;;;;;;;;5072725;28;20278;-53
2023/07/05 06:12:51;;;;;;;8.53;7.67;;;;;;;;;;5072829;28;20686;-53
2023/07/05 06:15:18;;;;;;;9.07;8.20;;;;;;;;;;5072773;28;20227;-53
2023/07/05 06:17:44;;;;;;;8.10;7.30;;;;;;;;;;5072669;28;20207;-52
2023/07/05 06:20:10;;;;;;;8.63;7.63;;;;;;;;;;5072636;28;20241;-53
2023/07/05 06:22:36;;;;;;;8.47;7.17;;;;;;;;;;5072895;28;20230;-53
2023/07/05 06:25:03;;;;;;;10.03;7.40;;;;;;;;;;5072539;28;20236;-53
2023/07/05 06:27:30;;;;;;;7.90;6.80;;;;;;;;;;5072589;28;20199;-51
2023/07/05 06:29:56;;;;;;;8.87;7.07;;;;;;;;;;5072597;28;20200;-52
2023/07/05 06:32:22;;;;;;;9.87;6.77;;;;;;;;;;5072376;28;20246;-53
2023/07/05 06:34:48;;;;;;;7.77;7.03;;;;;;;;;;5072476;28;20203;-52
2023/07/05 06:37:14;;;;;;;7.50;6.23;;;;;;;;;;5072336;28;20291;-51
2023/07/05 06:39:41;;;;;;;8.63;6.10;;;;;;;;;;5072146;28;20269;-52
2023/07/05 06:42:07;;;;;;;6.60;5.50;;;;;;;;;;5072019;28;20236;-51
2023/07/05 06:44:35;;;;;;;5.53;4.63;;;;;;;;;;5072148;28;20206;-52
2023/07/05 06:47:01;;;;;;;6.40;5.13;;;;;;;;;;5072101;28;20257;-52
2023/07/05 06:49:27;;;;;;;5.30;4.57;;;;;;;;;;5071955;28;20241;-53
2023/07/05 06:51:53;;;;;;;4.50;3.87;;;;;;;;;;5072231;28;20420;-53
2023/07/05 06:54:20;;;;;;;4.33;3.77;;;;;;;;;;5071986;28;20665;-53
2023/07/05 06:56:46;;;;;;;3.90;3.50;;;;;;;;;;5071891;28;20621;-53
2023/07/05 06:59:12;;;;;;;3.60;3.30;;;;;;;;;;5072030;28;20301;-53
2023/07/05 07:01:39;;;;;;;3.47;3.07;;;;;;;;;;5071809;28;20210;-53
2023/07/05 07:04:05;;;;;;;4.40;3.30;;;;;;;;;;5071767;28;20286;-53
2023/07/05 07:06:31;;;;;;;3.57;3.10;;;;;;;;;;5071588;28;20314;-53
2023/07/05 07:08:58;;;;;;;3.97;3.00;;;;;;;;;;5071836;28;20191;-53
2023/07/05 07:11:24;;;;;;;3.37;2.97;;;;;;;;;;5071661;28;20191;-54
2023/07/05 07:13:50;;;;;;;2.90;2.63;;;;;;;;;;5071811;28;20249;-53
2023/07/05 07:16:17;;;;;;;4.23;3.17;;;;;;;;;;5071707;28;20184;-53
2023/07/05 07:18:46;;;;;;;6.20;3.40;;;;;;;;;;5071405;28;20207;-53
2023/07/05 07:21:12;;;;;;;3.30;3.00;;;;;;;;;;5071531;28;20203;-54
2023/07/05 07:23:38;;;;;;;3.07;2.73;;;;;;;;;;5071456;28;20207;-55
2023/07/05 07:26:05;;;;;;;2.80;2.40;;;;;;;;;;5071373;28;20656;-55
2023/07/05 07:28:31;;;;;;;4.57;2.93;;;;;;;;;;5071521;28;20239;-55
2023/07/05 07:30:58;;;;;;;3.20;2.90;;;;;;;;;;5071482;28;20196;-55
2023/07/05 07:33:24;;;;;;;4.17;2.70;;;;;;;;;;5071275;28;20191;-55
2023/07/05 07:35:51;;;;;;;3.43;2.90;;;;;;;;;;5071386;28;20287;-56
2023/07/05 07:38:17;;;;;;;3.80;3.00;;;;;;;;;;5071380;28;20203;-56
2023/07/05 07:40:43;;;;;;;3.40;2.83;;;;;;;;;;5071161;28;20195;-56
2023/07/05 07:43:09;;;;;;;3.03;2.73;;;;;;;;;;5071191;28;20603;-56
2023/07/05 07:45:36;;;;;;;3.43;2.97;;;;;;;;;;5071191;28;20246;-55
2023/07/05 07:48:02;;;;;;;3.80;2.70;;;;;;;;;;5071235;28;20200;-55
2023/07/05 07:50:28;;;;;;;4.20;2.57;;;;;;;;;;5070611;28;20674;-55
2023/07/05 07:52:55;;;;;;;3.17;2.87;;;;;;;;;;5071137;28;20231;-55
2023/07/05 07:55:21;;;;;;;3.30;2.60;;;;;;;;;;5070899;28;20209;-55
2023/07/05 07:57:47;;;;;;;2.90;2.60;;;;;;;;;;5071048;28;20207;-55
2023/07/05 08:00:14;;;;;;;4.67;2.90;;;;;;;;;;5071179;28;20195;-55
2023/07/05 08:02:40;;;;;;;4.73;2.70;;;;;;;;;;5071049;28;20200;-55
2023/07/05 08:05:12;;;;;;;3.27;2.60;;;;;;;;;;5070933;28;20215;-55
2023/07/05 08:07:38;;;;;;;3.83;2.70;;;;;;;;;;5070773;28;20203;-55
2023/07/05 08:10:06;;;;;;;3.67;2.90;;;;;;;;;;5071023;28;20206;-54
2023/07/05 08:12:32;;;;;;;9.73;2.73;;;;;;;;;;5070866;28;20195;-54
2023/07/05 08:14:58;;;;;;;3.47;2.97;;;;;;;;;;5070992;28;20214;-54
2023/07/05 08:17:24;;;;;;;3.80;2.43;;;;;;;;;;5070831;28;20195;-55
2023/07/05 08:19:50;;;;;;;3.37;2.70;;;;;;;;;;5069143;28;20222;-54
2023/07/05 08:22:16;;;;;;;5.13;2.40;;;;;;;;;;5058896;28;20654;-54
2023/07/05 08:24:42;;;;;;;3.27;2.67;;;;;;;;;;5069568;28;20210;-53
2023/07/05 08:27:11;;;;;;;3.30;2.50;;;;;;;;;;5070685;28;20266;-53
2023/07/05 08:29:37;;;;;;;3.53;2.57;;;;;;;;;;5070531;28;20199;-53
2023/07/05 08:32:03;;;;;;;2.93;2.60;;;;;;;;;;5070679;28;20202;-53
2023/07/05 08:34:30;;;;;;;4.90;2.57;;;;;;;;;;5070369;28;20242;-53
2023/07/05 08:36:57;;;;;;;2.67;2.37;;;;;;;;;;5070363;28;20200;-53
2023/07/05 08:39:23;;;;;;;3.70;2.70;;;;;;;;;;5070561;28;20233;-53
2023/07/05 08:42:06;;;;;;;5.53;2.90;;;;;;;;;;5070323;28;20201;-53
2023/07/05 08:44:42;;;;;;;5.17;2.73;;;;;;;;;;5070175;28;20208;-55
2023/07/05 08:47:14;;;;;;;3.73;2.30;;;;;;;;;;5070366;28;20231;-54
2023/07/05 08:49:42;;;;;;;6.10;2.40;;;;;;;;;;5069663;28;20200;-55
2023/07/05 08:52:13;;;;;;;3.73;2.53;;;;;;;;;;5070201;28;20192;-54
2023/07/05 08:54:40;;;;;;;6.63;2.30;;;;;;;;;;5070056;28;20222;-54
2023/07/05 08:57:12;;;;;;;2.80;2.07;;;;;;;;;;5069823;28;20290;-51
2023/07/05 08:59:42;;;;;;;3.57;2.23;;;;;;;;;;5069646;28;20714;-52
2023/07/05 09:02:12;;;;;;;4.63;2.37;;;;;;;;;;5070175;28;20200;-57
2023/07/05 09:04:39;;;;;;;3.30;2.03;;;;;;;;;;5073457;28;20220;-49
2023/07/05 09:07:08;;;;;;;3.40;2.10;;;;;;;;;;5071806;28;20503;-49
2023/07/05 09:09:44;;;;;;;4.70;2.47;;;;;;;;;;5071888;28;20283;-49
2023/07/05 09:12:16;;;;;;;4.17;2.20;;;;;;;;;;5073507;28;20202;-49
2023/07/05 09:14:54;;;;;;;3.30;2.20;;;;;;;;;;5073539;28;20203;-51
2023/07/05 09:17:22;;;;;;;3.37;2.20;;;;;;;;;;5073620;28;20204;-50
2023/07/05 09:19:51;;;;;;;5.63;2.10;;;;;;;;;;5073391;28;20270;-49
2023/07/05 09:22:19;;;;;;;5.07;2.10;;;;;;;;;;5073435;28;20216;-47
2023/07/05 09:24:45;;;;;;;4.83;2.17;;;;;;;;;;5073136;28;20204;-50
2023/07/05 09:27:15;;;;;;;6.60;2.33;;;;;;;;;;5073490;28;20221;-51
2023/07/05 09:29:44;;;;;;;6.73;2.20;;;;;;;;;;5073242;28;20205;-50
2023/07/05 09:32:12;;;;;;;2.40;2.00;;;;;;;;;;5073312;28;20224;-50
2023/07/05 09:34:40;;;;;;;3.13;2.10;;;;;;;;;;5073078;28;20209;-48
2023/07/05 09:37:14;;;;;;;3.47;2.60;;;;;;;;;;5073185;28;20191;-50
2023/07/05 09:39:44;;;;;;;4.57;2.27;;;;;;;;;;5073194;28;20189;-50
2023/07/05 09:42:14;;;;;;;4.73;2.20;;;;;;;;;;5073135;28;20275;-53
2023/07/05 09:44:40;;;;;;;3.00;2.00;;;;;;;;;;5073129;28;20293;-54
2023/07/05 09:47:07;;;;;;;6.80;2.13;;;;;;;;;;5063438;28;20691;-54
2023/07/05 09:49:34;;;;;;;4.27;2.03;;;;;;;;;;5072796;28;20572;-54
2023/07/05 09:52:00;;;;;;;3.53;1.90;;;;;;;;;;5072407;28;20212;-54
2023/07/05 09:54:29;;;;;;;6.17;1.83;;;;;;;;;;5072793;28;20518;-54
2023/07/05 09:56:56;;;;;;;4.27;1.60;;;;;;;;;;5072608;28;20250;-54
2023/07/05 09:59:23;;;;;;;6.03;2.00;;;;;;;;;;5072840;28;20243;-54
2023/07/05 10:01:50;;;;;;;5.33;1.77;;;;;;;;;;5072403;28;20204;-54
2023/07/05 10:04:17;;;;;;;14.70;2.30;;;;;;;;;;5072174;28;20667;-53
2023/07/05 10:06:45;;;;;;;5.00;1.47;;;;;;;;;;5071832;28;20223;-54
2023/07/05 10:09:13;;;;;;;3.23;1.70;;;;;;;;;;5072306;28;20298;-54
2023/07/05 10:11:43;;;;;;;2.73;1.57;;;;;;;;;;5072290;28;20292;-55
2023/07/05 10:14:12;;;;;;;13.70;2.30;;;;;;;;;;5072148;28;20688;-54
2023/07/05 10:16:52;;;;;;;3.60;1.60;;;;;;;;;;5071853;28;20242;-55
2023/07/05 10:19:25;;;;;;;8.17;1.73;;;;;;;;;;5072222;28;20670;-54
2023/07/05 10:21:54;;;;;;;4.37;1.70;;;;;;;;;;5071969;28;20728;-54
2023/07/05 10:24:21;;;;;;;5.90;2.03;;;;;;;;;;5072177;28;20207;-53
2023/07/05 10:26:48;;;;;;;5.63;1.90;;;;;;;;;;5071984;28;20283;-54
2023/07/05 10:29:18;;;;;;;2.73;1.80;;;;;;;;;;5071836;28;20195;-54
2023/07/05 10:31:51;;;;;;;4.77;2.00;;;;;;;;;;5071874;28;20280;-54
2023/07/05 10:34:19;;;;;;;3.40;1.57;;;;;;;;;;5071979;28;20632;-54
2023/07/05 10:36:45;;;;;;;9.33;1.80;;;;;;;;;;5071859;28;20622;-54
2023/07/05 10:39:13;;;;;;;3.80;1.80;;;;;;;;;;5071755;28;20719;-54
2023/07/05 10:41:41;;;;;;;2.73;2.00;;;;;;;;;;5071154;28;20723;-54
2023/07/05 10:44:08;;;;;;;1.60;1.50;;;;;;;;;;5071644;28;20212;-55
2023/07/05 10:46:36;;;;;;;2.93;1.53;;;;;;;;;;5071588;28;20220;-54
2023/07/05 10:49:03;;;;;;;3.00;1.83;;;;;;;;;;5071766;28;20295;-54
2023/07/05 10:51:31;;;;;;;3.67;1.83;;;;;;;;;;5071481;28;20578;-54
2023/07/05 10:54:00;;;;;;;2.17;1.97;;;;;;;;;;5071225;28;20207;-54
2023/07/05 10:56:31;;;;;;;1.70;1.57;;;;;;;;;;5071479;28;20204;-54
2023/07/05 10:59:01;;;;;;;3.73;1.60;;;;;;;;;;5071605;28;20199;-53
2023/07/05 11:01:29;;;;;;;2.17;1.63;;;;;;;;;;5071289;28;20739;-54
2023/07/05 11:03:59;;;;;;;2.67;1.60;;;;;;;;;;5070924;28;20200;-54
2023/07/05 11:06:27;;;;;;;5.50;1.63;;;;;;;;;;5071254;28;20208;-54
2023/07/05 11:08:53;;;;;;;1.77;1.53;;;;;;;;;;5071315;28;20211;-55
2023/07/05 11:11:20;;;;;;;3.37;1.80;;;;;;;;;;5071321;28;20242;-54
2023/07/05 11:13:49;;;;;;;3.50;1.43;;;;;;;;;;5070876;28;20207;-55
2023/07/05 11:16:18;;;;;;;4.37;1.90;;;;;;;;;;5070854;28;20197;-55
2023/07/05 11:18:45;;;;;;;3.67;1.80;;;;;;;;;;5070839;28;20208;-55
2023/07/05 11:21:26;;;;;;;7.20;2.00;;;;;;;;;;5068089;28;20235;-55
2023/07/05 11:23:53;;;;;;;2.63;1.90;;;;;;;;;;5046926;28;20231;-54
2023/07/05 11:26:29;;;;;;;3.97;1.93;;;;;;;;;;5050478;28;20255;-54
2023/07/05 11:28:57;;;;;;;3.60;1.83;;;;;;;;;;5051072;28;20192;-54
2023/07/05 11:31:37;;;;;;;3.37;2.10;;;;;;;;;;5051067;28;20570;-55
2023/07/05 11:34:20;;;;;;;3.57;1.90;;;;;;;;;;5050997;28;20667;-54
2023/07/05 11:36:46;;;;;;;4.73;1.83;;;;;;;;;;5050821;28;20655;-55
2023/07/05 11:39:31;;;;;;;2.73;1.93;;;;;;;;;;5051014;28;20200;-55
2023/07/05 11:41:58;;;;;;;4.60;2.13;;;;;;;;;;5050796;28;20254;-54
2023/07/05 11:44:27;;;;;;;3.40;1.93;;;;;;;;;;5050934;28;20483;-55
2023/07/05 11:46:54;;;;;;;3.73;1.90;;;;;;;;;;5050663;28;20234;-55
2023/07/05 11:49:26;;;;;;;3.87;1.93;;;;;;;;;;5050820;28;20204;-54
2023/07/05 11:51:56;;;;;;;3.07;2.00;;;;;;;;;;5050750;28;20466;-55
2023/07/05 11:54:25;;;;;;;2.97;1.70;;;;;;;;;;5050895;28;20223;-54
2023/07/05 11:56:52;;;;;;;2.80;1.77;;;;;;;;;;5050836;28;20186;-54
2023/07/05 11:59:20;;;;;;;3.37;1.77;;;;;;;;;;5050855;28;20208;-54
2023/07/05 12:01:48;;;;;;;5.70;1.70;;;;;;;;;;5050664;28;20658;-54
2023/07/05 12:04:19;;;;;;;6.13;1.87;;;;;;;;;;5049374;28;20326;-56
2023/07/05 12:06:45;;;;;;;5.83;2.30;;;;;;;;;;5050437;28;20351;-53
2023/07/05 12:09:14;;;;;;;4.03;1.77;;;;;;;;;;5050573;28;20697;-53
2023/07/05 12:11:41;;;;;;;3.77;1.90;;;;;;;;;;5050695;28;20243;-53
2023/07/05 12:14:09;;;;;;;3.77;1.80;;;;;;;;;;5050694;28;20192;-53
2023/07/05 12:16:38;;;;;;;3.00;1.90;;;;;;;;;;5050301;28;20192;-53
2023/07/05 12:19:07;;;;;;;5.57;2.17;;;;;;;;;;5050577;28;20200;-53
2023/07/05 12:21:34;;;;;;;4.80;1.83;;;;;;;;;;5050458;28;20207;-53
2023/07/05 12:24:03;;;;;;;8.70;2.03;;;;;;;;;;5050306;28;20593;-53
2023/07/05 12:26:31;;;;;;;4.60;1.80;;;;;;;;;;5050674;28;20702;-54
2023/07/05 12:28:59;;;;;;;3.67;1.77;;;;;;;;;;5050609;28;20231;-53
2023/07/05 12:31:25;;;;;;;2.17;1.90;;;;;;;;;;5050593;28;20204;-53
2023/07/05 12:33:53;;;;;;;4.77;1.73;;;;;;;;;;5050380;28;20219;-53
2023/07/05 12:36:20;;;;;;;4.50;2.20;;;;;;;;;;5050592;28;20235;-53
2023/07/05 12:38:49;;;;;;;3.90;1.97;;;;;;;;;;5054110;28;20232;-53
2023/07/05 12:41:16;;;;;;;8.00;2.03;;;;;;;;;;5054258;28;20287;-54
2023/07/05 12:43:42;;;;;;;3.97;2.27;;;;;;;;;;5054062;28;20246;-53
2023/07/05 12:46:09;;;;;;;4.83;2.13;;;;;;;;;;5054122;28;20239;-54
2023/07/05 12:48:35;;;;;;;3.33;2.07;;;;;;;;;;5054174;28;20689;-54
2023/07/05 12:51:02;;;;;;;4.67;2.30;;;;;;;;;;5054517;28;20192;-53
2023/07/05 12:53:29;;;;;;;3.80;1.93;;;;;;;;;;5054063;28;20212;-53
2023/07/05 12:55:57;;;;;;;3.43;2.33;;;;;;;;;;5054341;28;20311;-53
2023/07/05 12:58:24;;;;;;;3.37;2.00;;;;;;;;;;5054045;28;20265;-53
2023/07/05 13:00:50;;;;;;;3.20;2.20;;;;;;;;;;5053888;28;20223;-53
2023/07/05 13:03:17;;;;;;;6.20;2.23;;;;;;;;;;5053723;28;20200;-52
2023/07/05 13:05:43;;;;;;;4.83;1.77;;;;;;;;;;5053065;28;20224;-51
2023/07/05 13:08:09;;;;;;;3.83;2.20;;;;;;;;;;5053762;28;20200;-51
2023/07/05 13:10:37;;;;;;;4.07;2.03;;;;;;;;;;5053738;28;20765;-54
2023/07/05 13:13:21;;;;;;;4.10;2.00;;;;;;;;;;5054117;28;20208;-52
2023/07/05 13:15:48;;;;;;;6.80;2.50;;;;;;;;;;5053661;28;20720;-51
2023/07/05 13:18:14;;;;;;;3.77;1.90;;;;;;;;;;5053448;28;20287;-52
2023/07/05 13:20:41;;;;;;;3.57;2.27;;;;;;;;;;5053362;28;20558;-51
2023/07/05 13:23:07;;;;;;;4.27;2.40;;;;;;;;;;5053659;28;20253;-52
2023/07/05 13:25:40;;;;;;;4.77;2.97;;;;;;;;;;5053378;28;20193;-53
2023/07/05 13:28:17;;;;;;;4.07;2.30;;;;;;;;;;5053599;28;20204;-53
2023/07/05 13:30:44;;;;;;;3.53;1.80;;;;;;;;;;5053402;28;20262;-53
2023/07/05 13:33:12;;;;;;;2.80;1.83;;;;;;;;;;5053406;28;20608;-53
2023/07/05 13:35:38;;;;;;;4.13;2.10;;;;;;;;;;5053170;28;20196;-53
2023/07/05 13:38:04;;;;;;;3.47;2.10;;;;;;;;;;5053273;28;20303;-54
2023/07/05 13:40:30;;;;;;;5.60;2.03;;;;;;;;;;5053104;28;20295;-53
2023/07/05 13:42:57;;;;;;;4.97;2.27;;;;;;;;;;5052962;28;20247;-53
2023/07/05 13:45:26;;;;;;;5.63;2.00;;;;;;;;;;5053124;28;20200;-52
2023/07/05 13:47:52;;;;;;;5.93;2.00;;;;;;;;;;5052562;28;20235;-54
2023/07/05 13:50:18;;;;;;;6.53;2.30;;;;;;;;;;5052648;28;20196;-54
2023/07/05 13:52:45;;;;;;;3.67;1.93;;;;;;;;;;5052798;28;20192;-54
2023/07/05 13:55:15;;;;;;;4.43;2.43;;;;;;;;;;5052964;28;20276;-54
2023/07/05 13:57:51;;;;;;;3.20;2.23;;;;;;;;;;5052766;28;20196;-54
2023/07/05 14:00:18;;;;;;;5.20;2.47;;;;;;;;;;5052851;28;20223;-55
2023/07/05 14:02:46;;;;;;;4.00;2.03;;;;;;;;;;5052704;28;20231;-54
2023/07/05 14:05:12;;;;;;;5.00;2.17;;;;;;;;;;5052522;28;20208;-54
2023/07/05 14:07:38;;;;;;;5.73;2.20;;;;;;;;;;5052509;28;20236;-54
2023/07/05 14:10:05;;;;;;;3.10;2.30;;;;;;;;;;5052370;28;20200;-54
2023/07/05 14:12:31;;;;;;;3.47;2.20;;;;;;;;;;5052494;28;20196;-53
2023/07/05 14:14:57;;;;;;;5.53;2.57;;;;;;;;;;5052486;28;20231;-54
2023/07/05 14:17:23;;;;;;;7.20;2.93;;;;;;;;;;5052537;28;20196;-53
2023/07/05 14:19:51;;;;;;;5.13;2.40;;;;;;;;;;5052203;28;20192;-53
2023/07/05 14:22:18;;;;;;;5.63;2.37;;;;;;;;;;5052370;28;20196;-53
2023/07/05 14:24:44;;;;;;;3.67;2.13;;;;;;;;;;5052198;28;20611;-56
2023/07/05 14:27:14;;;;;;;5.93;2.30;;;;;;;;;;5052370;28;20227;-53
2023/07/05 14:29:40;;;;;;;5.80;2.30;;;;;;;;;;5052197;28;20192;-52
2023/07/05 14:32:08;;;;;;;3.90;2.30;;;;;;;;;;5052035;28;20686;-50
2023/07/05 14:34:34;;;;;;;3.37;2.17;;;;;;;;;;5052130;28;20204;-53
2023/07/05 14:37:01;;;;;;;4.53;1.90;;;;;;;;;;5049588;28;20215;-50
2023/07/05 14:39:27;;;;;;;2.60;1.83;;;;;;;;;;5071461;28;20566;-51
2023/07/05 14:41:53;;;;;;;4.03;1.87;;;;;;;;;;5068308;28;20650;-51
2023/07/05 14:44:19;;;;;;;3.40;2.27;;;;;;;;;;5071921;28;20206;-51
2023/07/05 14:46:45;;;;;;;4.23;2.30;;;;;;;;;;5071820;28;20720;-49